sensor_id;sensor_type;location;lat;lon;timestamp;temperature;humidity
2851;DHT22;1433;49.976;8.342;2023-06-24T00:01:53;17.40;99.90
2851;DHT22;1433;49.976;8.342;2023-06-24T00:04:19;17.30;99.90
2851;DHT22;1433;49.976;8.342;2023-06-24T00:06:46;17.30;99.90
2851;DHT22;1433;49.976;8.342;2023-06-24T00:09:12;17.30;99.90
2851;DHT22;1433;49.976;8.342;2023-06-24T00:11:39;17.30;99.90
2851;DHT22;1433;49.976;8.342;2023-06-24T00:14:06;17.20;99.90
2851;DHT22;1433;49.976;8.342;2023-06-24T00:16:33;17.10;99.90
2851;DHT22;1433;49.976;8.342;2023-06-24T00:18:59;17.10;99.90
2851;DHT22;1433;49.976;8.342;2023-06-24T00:21:28;17.00;99.90
2851;DHT22;1433;49.976;8.342;2023-06-24T00:23:59;17.00;99.90
2851;DHT22;1433;49.976;8.342;2023-06-24T00:26:41;16.90;99.90
2851;DHT22;1433;49.976;8.342;2023-06-24T00:29:08;16.80;99.90
2851;DHT22;1433;49.976;8.342;2023-06-24T00:31:34;16.70;99.90
2851;DHT22;1433;49.976;8.342;2023-06-24T00:34:00;16.70;99.90
2851;DHT22;1433;49.976;8.342;2023-06-24T00:36:26;16.60;99.90
2851;DHT22;1433;49.976;8.342;2023-06-24T00:38:53;16.60;99.90
2851;DHT22;1433;49.976;8.342;2023-06-24T00:41:19;16.50;99.90
2851;DHT22;1433;49.976;8.342;2023-06-24T00:43:46;16.50;99.90
2851;DHT22;1433;49.976;8.342;2023-06-24T00:46:13;16.40;99.90
2851;DHT22;1433;49.976;8.342;2023-06-24T00:48:41;16.40;99.90
2851;DHT22;1433;49.976;8.342;2023-06-24T00:51:08;16.30;99.90
2851;DHT22;1433;49.976;8.342;2023-06-24T00:53:34;16.30;99.90
2851;DHT22;1433;49.976;8.342;2023-06-24T00:56:00;16.30;99.90
2851;DHT22;1433;49.976;8.342;2023-06-24T00:58:31;16.20;99.90
2851;DHT22;1433;49.976;8.342;2023-06-24T01:00:57;16.20;99.90
2851;DHT22;1433;49.976;8.342;2023-06-24T01:03:24;16.10;99.90
2851;DHT22;1433;49.976;8.342;2023-06-24T01:05:51;16.10;99.90
2851;DHT22;1433;49.976;8.342;2023-06-24T01:08:18;16.10;99.90
2851;DHT22;1433;49.976;8.342;2023-06-24T01:10:46;16.00;99.90
2851;DHT22;1433;49.976;8.342;2023-06-24T01:13:12;16.10;99.90
2851;DHT22;1433;49.976;8.342;2023-06-24T01:15:39;16.10;99.90
2851;DHT22;1433;49.976;8.342;2023-06-24T01:18:08;16.10;99.90
2851;DHT22;1433;49.976;8.342;2023-06-24T01:20:52;16.10;99.90
2851;DHT22;1433;49.976;8.342;2023-06-24T01:23:39;16.10;99.90
2851;DHT22;1433;49.976;8.342;2023-06-24T01:26:14;16.10;99.90
2851;DHT22;1433;49.976;8.342;2023-06-24T01:31:33;16.10;99.90
2851;DHT22;1433;49.976;8.342;2023-06-24T01:36:40;16.10;99.90
2851;DHT22;1433;49.976;8.342;2023-06-24T01:39:09;16.10;99.90
2851;DHT22;1433;49.976;8.342;2023-06-24T01:41:42;16.00;99.90
2851;DHT22;1433;49.976;8.342;2023-06-24T01:44:06;16.00;99.90
2851;DHT22;1433;49.976;8.342;2023-06-24T01:46:36;16.00;99.90
2851;DHT22;1433;49.976;8.342;2023-06-24T01:49:04;15.90;99.90
2851;DHT22;1433;49.976;8.342;2023-06-24T01:51:34;15.90;99.90
2851;DHT22;1433;49.976;8.342;2023-06-24T01:54:04;15.80;99.90
2851;DHT22;1433;49.976;8.342;2023-06-24T01:56:33;15.80;99.90
2851;DHT22;1433;49.976;8.342;2023-06-24T01:59:01;15.80;99.90
2851;DHT22;1433;49.976;8.342;2023-06-24T02:01:31;15.70;99.90
2851;DHT22;1433;49.976;8.342;2023-06-24T02:04:00;15.70;99.90
2851;DHT22;1433;49.976;8.342;2023-06-24T02:06:28;15.80;99.90
2851;DHT22;1433;49.976;8.342;2023-06-24T02:08:58;15.80;99.90
2851;DHT22;1433;49.976;8.342;2023-06-24T02:11:26;15.80;99.90
2851;DHT22;1433;49.976;8.342;2023-06-24T02:13:56;15.80;99.90
2851;DHT22;1433;49.976;8.342;2023-06-24T02:16:25;15.70;99.90
2851;DHT22;1433;49.976;8.342;2023-06-24T02:18:54;15.70;99.90
2851;DHT22;1433;49.976;8.342;2023-06-24T02:21:21;15.60;99.90
2851;DHT22;1433;49.976;8.342;2023-06-24T02:23:49;15.60;99.90
2851;DHT22;1433;49.976;8.342;2023-06-24T02:26:17;15.50;99.90
2851;DHT22;1433;49.976;8.342;2023-06-24T02:28:44;15.50;99.90
2851;DHT22;1433;49.976;8.342;2023-06-24T02:31:12;15.50;99.90
2851;DHT22;1433;49.976;8.342;2023-06-24T02:33:39;15.40;99.90
2851;DHT22;1433;49.976;8.342;2023-06-24T02:36:06;15.30;99.90
2851;DHT22;1433;49.976;8.342;2023-06-24T02:38:32;15.30;99.90
2851;DHT22;1433;49.976;8.342;2023-06-24T02:40:58;15.20;99.90
2851;DHT22;1433;49.976;8.342;2023-06-24T02:43:24;15.20;99.90
2851;DHT22;1433;49.976;8.342;2023-06-24T02:45:51;15.20;99.90
2851;DHT22;1433;49.976;8.342;2023-06-24T02:48:19;15.20;99.90
2851;DHT22;1433;49.976;8.342;2023-06-24T02:50:47;15.20;99.90
2851;DHT22;1433;49.976;8.342;2023-06-24T02:53:14;15.10;99.90
2851;DHT22;1433;49.976;8.342;2023-06-24T02:55:42;15.10;99.90
2851;DHT22;1433;49.976;8.342;2023-06-24T02:58:09;15.00;99.90
2851;DHT22;1433;49.976;8.342;2023-06-24T03:00:43;15.00;99.90
2851;DHT22;1433;49.976;8.342;2023-06-24T03:03:10;15.00;99.90
2851;DHT22;1433;49.976;8.342;2023-06-24T03:05:38;15.00;99.90
2851;DHT22;1433;49.976;8.342;2023-06-24T03:08:05;15.00;99.90
2851;DHT22;1433;49.976;8.342;2023-06-24T03:10:33;15.00;99.90
2851;DHT22;1433;49.976;8.342;2023-06-24T03:13:01;15.00;99.90
2851;DHT22;1433;49.976;8.342;2023-06-24T03:15:29;15.00;99.90
2851;DHT22;1433;49.976;8.342;2023-06-24T03:17:57;15.00;99.90
2851;DHT22;1433;49.976;8.342;2023-06-24T03:20:23;14.90;99.90
2851;DHT22;1433;49.976;8.342;2023-06-24T03:22:50;14.90;99.90
2851;DHT22;1433;49.976;8.342;2023-06-24T03:25:18;14.90;99.90
2851;DHT22;1433;49.976;8.342;2023-06-24T03:27:53;14.90;99.90
2851;DHT22;1433;49.976;8.342;2023-06-24T03:30:19;14.90;99.90
2851;DHT22;1433;49.976;8.342;2023-06-24T03:32:46;14.90;99.90
2851;DHT22;1433;49.976;8.342;2023-06-24T03:35:14;14.90;99.90
2851;DHT22;1433;49.976;8.342;2023-06-24T03:37:42;14.80;99.90
2851;DHT22;1433;49.976;8.342;2023-06-24T03:40:08;14.80;99.90
2851;DHT22;1433;49.976;8.342;2023-06-24T03:42:35;14.80;99.90
2851;DHT22;1433;49.976;8.342;2023-06-24T03:45:03;14.90;99.90
2851;DHT22;1433;49.976;8.342;2023-06-24T03:47:29;14.90;99.90
2851;DHT22;1433;49.976;8.342;2023-06-24T03:49:55;14.90;99.90
2851;DHT22;1433;49.976;8.342;2023-06-24T03:52:22;14.90;99.90
2851;DHT22;1433;49.976;8.342;2023-06-24T03:54:49;15.00;99.90
2851;DHT22;1433;49.976;8.342;2023-06-24T03:57:15;15.00;99.90
2851;DHT22;1433;49.976;8.342;2023-06-24T03:59:42;15.10;99.90
2851;DHT22;1433;49.976;8.342;2023-06-24T04:02:08;15.10;99.90
2851;DHT22;1433;49.976;8.342;2023-06-24T04:04:35;15.10;99.90
2851;DHT22;1433;49.976;8.342;2023-06-24T04:07:03;15.20;99.90
2851;DHT22;1433;49.976;8.342;2023-06-24T04:09:33;15.20;99.90
2851;DHT22;1433;49.976;8.342;2023-06-24T04:11:59;15.20;99.90
2851;DHT22;1433;49.976;8.342;2023-06-24T04:14:28;15.30;99.90
2851;DHT22;1433;49.976;8.342;2023-06-24T04:16:54;15.30;99.90
2851;DHT22;1433;49.976;8.342;2023-06-24T04:19:22;15.40;99.90
2851;DHT22;1433;49.976;8.342;2023-06-24T04:21:49;15.40;99.90
2851;DHT22;1433;49.976;8.342;2023-06-24T04:24:16;15.50;99.90
2851;DHT22;1433;49.976;8.342;2023-06-24T04:26:42;15.60;99.90
2851;DHT22;1433;49.976;8.342;2023-06-24T04:29:08;15.60;99.90
2851;DHT22;1433;49.976;8.342;2023-06-24T04:31:34;15.70;99.90
2851;DHT22;1433;49.976;8.342;2023-06-24T04:34:00;15.80;99.90
2851;DHT22;1433;49.976;8.342;2023-06-24T04:36:26;15.90;99.90
2851;DHT22;1433;49.976;8.342;2023-06-24T04:38:53;16.00;99.90
2851;DHT22;1433;49.976;8.342;2023-06-24T04:41:19;16.00;99.90
2851;DHT22;1433;49.976;8.342;2023-06-24T04:43:45;16.10;99.90
2851;DHT22;1433;49.976;8.342;2023-06-24T04:46:11;16.20;99.90
2851;DHT22;1433;49.976;8.342;2023-06-24T04:48:37;16.20;99.90
2851;DHT22;1433;49.976;8.342;2023-06-24T04:51:04;16.30;99.90
2851;DHT22;1433;49.976;8.342;2023-06-24T04:53:30;16.40;99.90
2851;DHT22;1433;49.976;8.342;2023-06-24T04:55:56;16.40;99.90
2851;DHT22;1433;49.976;8.342;2023-06-24T04:58:22;16.50;99.90
2851;DHT22;1433;49.976;8.342;2023-06-24T05:00:48;16.60;99.90
2851;DHT22;1433;49.976;8.342;2023-06-24T05:03:15;16.70;99.90
2851;DHT22;1433;49.976;8.342;2023-06-24T05:05:41;16.70;99.90
2851;DHT22;1433;49.976;8.342;2023-06-24T05:08:07;16.80;99.90
2851;DHT22;1433;49.976;8.342;2023-06-24T05:10:33;16.90;99.90
2851;DHT22;1433;49.976;8.342;2023-06-24T05:12:59;16.90;99.90
2851;DHT22;1433;49.976;8.342;2023-06-24T05:15:25;17.00;99.90
2851;DHT22;1433;49.976;8.342;2023-06-24T05:17:52;17.10;99.90
2851;DHT22;1433;49.976;8.342;2023-06-24T05:20:18;17.20;99.90
2851;DHT22;1433;49.976;8.342;2023-06-24T05:22:44;17.30;99.90
2851;DHT22;1433;49.976;8.342;2023-06-24T05:25:10;17.40;99.90
2851;DHT22;1433;49.976;8.342;2023-06-24T05:27:36;17.40;99.90
2851;DHT22;1433;49.976;8.342;2023-06-24T05:30:03;17.50;99.90
2851;DHT22;1433;49.976;8.342;2023-06-24T05:32:29;17.50;99.90
2851;DHT22;1433;49.976;8.342;2023-06-24T05:34:55;17.60;99.90
2851;DHT22;1433;49.976;8.342;2023-06-24T05:37:21;17.60;99.90
2851;DHT22;1433;49.976;8.342;2023-06-24T05:39:47;17.60;99.90
2851;DHT22;1433;49.976;8.342;2023-06-24T05:42:14;17.70;99.90
2851;DHT22;1433;49.976;8.342;2023-06-24T05:44:40;17.80;99.90
2851;DHT22;1433;49.976;8.342;2023-06-24T05:47:06;17.80;99.90
2851;DHT22;1433;49.976;8.342;2023-06-24T05:49:32;17.90;99.90
2851;DHT22;1433;49.976;8.342;2023-06-24T05:51:59;18.00;99.90
2851;DHT22;1433;49.976;8.342;2023-06-24T05:54:25;18.00;99.90
2851;DHT22;1433;49.976;8.342;2023-06-24T05:56:51;18.20;99.90
2851;DHT22;1433;49.976;8.342;2023-06-24T05:59:17;18.30;99.90
2851;DHT22;1433;49.976;8.342;2023-06-24T06:01:44;18.40;99.90
2851;DHT22;1433;49.976;8.342;2023-06-24T06:04:10;18.50;99.90
2851;DHT22;1433;49.976;8.342;2023-06-24T06:06:36;18.60;99.90
2851;DHT22;1433;49.976;8.342;2023-06-24T06:09:03;18.60;99.90
2851;DHT22;1433;49.976;8.342;2023-06-24T06:11:29;18.70;99.90
2851;DHT22;1433;49.976;8.342;2023-06-24T06:13:57;18.70;99.90
2851;DHT22;1433;49.976;8.342;2023-06-24T06:16:23;18.70;99.90
2851;DHT22;1433;49.976;8.342;2023-06-24T06:18:49;18.80;99.90
2851;DHT22;1433;49.976;8.342;2023-06-24T06:21:16;18.80;99.90
2851;DHT22;1433;49.976;8.342;2023-06-24T06:23:49;18.80;99.90
2851;DHT22;1433;49.976;8.342;2023-06-24T06:26:15;19.00;99.90
2851;DHT22;1433;49.976;8.342;2023-06-24T06:28:42;19.10;99.90
2851;DHT22;1433;49.976;8.342;2023-06-24T06:31:08;19.20;99.90
2851;DHT22;1433;49.976;8.342;2023-06-24T06:33:35;19.30;99.90
2851;DHT22;1433;49.976;8.342;2023-06-24T06:36:01;19.50;99.90
2851;DHT22;1433;49.976;8.342;2023-06-24T06:38:27;19.50;99.90
2851;DHT22;1433;49.976;8.342;2023-06-24T06:40:54;19.60;99.90
2851;DHT22;1433;49.976;8.342;2023-06-24T06:43:20;19.80;99.90
2851;DHT22;1433;49.976;8.342;2023-06-24T06:45:47;19.80;99.90
2851;DHT22;1433;49.976;8.342;2023-06-24T06:48:13;19.90;99.90
2851;DHT22;1433;49.976;8.342;2023-06-24T06:50:39;20.20;99.90
2851;DHT22;1433;49.976;8.342;2023-06-24T06:53:05;20.50;99.90
2851;DHT22;1433;49.976;8.342;2023-06-24T06:55:32;20.60;99.90
2851;DHT22;1433;49.976;8.342;2023-06-24T06:57:58;20.70;99.90
2851;DHT22;1433;49.976;8.342;2023-06-24T07:00:24;20.70;99.90
2851;DHT22;1433;49.976;8.342;2023-06-24T07:02:50;20.70;99.90
2851;DHT22;1433;49.976;8.342;2023-06-24T07:05:16;20.80;99.90
2851;DHT22;1433;49.976;8.342;2023-06-24T07:07:53;20.80;99.90
2851;DHT22;1433;49.976;8.342;2023-06-24T07:10:20;20.90;99.90
2851;DHT22;1433;49.976;8.342;2023-06-24T07:12:46;21.00;99.90
2851;DHT22;1433;49.976;8.342;2023-06-24T07:15:12;21.00;99.90
2851;DHT22;1433;49.976;8.342;2023-06-24T07:17:39;21.10;99.90
2851;DHT22;1433;49.976;8.342;2023-06-24T07:20:06;21.20;99.90
2851;DHT22;1433;49.976;8.342;2023-06-24T07:22:33;21.20;99.90
2851;DHT22;1433;49.976;8.342;2023-06-24T07:24:59;21.20;99.90
2851;DHT22;1433;49.976;8.342;2023-06-24T07:27:26;21.30;99.90
2851;DHT22;1433;49.976;8.342;2023-06-24T07:29:52;21.50;99.90
2851;DHT22;1433;49.976;8.342;2023-06-24T07:32:18;21.60;99.90
2851;DHT22;1433;49.976;8.342;2023-06-24T07:34:44;21.70;99.90
2851;DHT22;1433;49.976;8.342;2023-06-24T07:37:10;21.80;99.90
2851;DHT22;1433;49.976;8.342;2023-06-24T07:39:37;21.60;99.90
2851;DHT22;1433;49.976;8.342;2023-06-24T07:42:03;21.70;99.90
2851;DHT22;1433;49.976;8.342;2023-06-24T07:44:29;21.80;99.90
2851;DHT22;1433;49.976;8.342;2023-06-24T07:46:56;22.00;99.90
2851;DHT22;1433;49.976;8.342;2023-06-24T07:49:22;22.10;99.90
2851;DHT22;1433;49.976;8.342;2023-06-24T07:51:48;22.20;1.00
2851;DHT22;1433;49.976;8.342;2023-06-24T07:54:22;22.10;1.20
2851;DHT22;1433;49.976;8.342;2023-06-24T07:56:48;22.30;1.00
2851;DHT22;1433;49.976;8.342;2023-06-24T07:59:14;22.40;1.00
2851;DHT22;1433;49.976;8.342;2023-06-24T08:01:40;22.50;1.00
2851;DHT22;1433;49.976;8.342;2023-06-24T08:04:06;22.70;1.00
2851;DHT22;1433;49.976;8.342;2023-06-24T08:06:32;22.80;99.90
2851;DHT22;1433;49.976;8.342;2023-06-24T08:08:59;22.90;1.00
2851;DHT22;1433;49.976;8.342;2023-06-24T08:11:25;22.90;99.90
2851;DHT22;1433;49.976;8.342;2023-06-24T08:13:53;22.90;99.90
2851;DHT22;1433;49.976;8.342;2023-06-24T08:16:19;23.00;1.00
2851;DHT22;1433;49.976;8.342;2023-06-24T08:18:46;23.10;1.00
2851;DHT22;1433;49.976;8.342;2023-06-24T08:21:12;23.20;1.00
2851;DHT22;1433;49.976;8.342;2023-06-24T08:23:39;23.20;99.90
2851;DHT22;1433;49.976;8.342;2023-06-24T08:26:05;23.20;1.00
2851;DHT22;1433;49.976;8.342;2023-06-24T08:28:31;23.20;1.00
2851;DHT22;1433;49.976;8.342;2023-06-24T08:30:57;23.40;99.90
2851;DHT22;1433;49.976;8.342;2023-06-24T08:33:23;23.60;1.00
2851;DHT22;1433;49.976;8.342;2023-06-24T08:35:50;23.70;99.90
2851;DHT22;1433;49.976;8.342;2023-06-24T08:38:16;23.80;99.90
2851;DHT22;1433;49.976;8.342;2023-06-24T08:40:44;24.10;1.00
2851;DHT22;1433;49.976;8.342;2023-06-24T08:43:11;24.10;1.00
2851;DHT22;1433;49.976;8.342;2023-06-24T08:45:37;24.20;93.30
2851;DHT22;1433;49.976;8.342;2023-06-24T08:48:04;24.30;99.90
2851;DHT22;1433;49.976;8.342;2023-06-24T08:50:37;24.40;1.00
2851;DHT22;1433;49.976;8.342;2023-06-24T08:53:07;24.40;1.00
2851;DHT22;1433;49.976;8.342;2023-06-24T08:55:36;24.30;1.00
2851;DHT22;1433;49.976;8.342;2023-06-24T08:58:04;24.20;1.00
2851;DHT22;1433;49.976;8.342;2023-06-24T09:00:30;24.20;1.00
2851;DHT22;1433;49.976;8.342;2023-06-24T09:02:57;24.40;99.90
2851;DHT22;1433;49.976;8.342;2023-06-24T09:05:24;24.70;1.00
2851;DHT22;1433;49.976;8.342;2023-06-24T09:07:50;24.70;1.00
2851;DHT22;1433;49.976;8.342;2023-06-24T09:10:37;24.60;1.00
2851;DHT22;1433;49.976;8.342;2023-06-24T09:13:05;24.40;1.00
2851;DHT22;1433;49.976;8.342;2023-06-24T09:15:32;24.50;1.00
2851;DHT22;1433;49.976;8.342;2023-06-24T09:17:59;24.60;1.00
2851;DHT22;1433;49.976;8.342;2023-06-24T09:20:27;24.60;1.00
2851;DHT22;1433;49.976;8.342;2023-06-24T09:23:01;24.90;1.00
2851;DHT22;1433;49.976;8.342;2023-06-24T09:25:27;25.10;1.00
2851;DHT22;1433;49.976;8.342;2023-06-24T09:27:54;24.90;1.00
2851;DHT22;1433;49.976;8.342;2023-06-24T09:30:22;25.00;1.00
2851;DHT22;1433;49.976;8.342;2023-06-24T09:32:49;25.20;1.00
2851;DHT22;1433;49.976;8.342;2023-06-24T09:35:23;25.50;1.00
2851;DHT22;1433;49.976;8.342;2023-06-24T09:37:54;25.80;1.00
2851;DHT22;1433;49.976;8.342;2023-06-24T09:40:22;26.00;1.00
2851;DHT22;1433;49.976;8.342;2023-06-24T09:42:55;26.10;1.00
2851;DHT22;1433;49.976;8.342;2023-06-24T09:45:25;26.10;1.00
2851;DHT22;1433;49.976;8.342;2023-06-24T09:47:52;26.00;1.00
2851;DHT22;1433;49.976;8.342;2023-06-24T09:50:19;26.10;1.00
2851;DHT22;1433;49.976;8.342;2023-06-24T09:52:46;26.10;1.00
2851;DHT22;1433;49.976;8.342;2023-06-24T09:55:13;26.30;1.00
2851;DHT22;1433;49.976;8.342;2023-06-24T09:57:44;26.40;1.00
2851;DHT22;1433;49.976;8.342;2023-06-24T10:00:11;26.80;1.00
2851;DHT22;1433;49.976;8.342;2023-06-24T10:02:38;26.90;1.00
2851;DHT22;1433;49.976;8.342;2023-06-24T10:05:04;27.10;1.00
2851;DHT22;1433;49.976;8.342;2023-06-24T10:07:32;27.40;1.00
2851;DHT22;1433;49.976;8.342;2023-06-24T10:09:58;27.50;1.00
2851;DHT22;1433;49.976;8.342;2023-06-24T10:12:24;27.60;1.00
2851;DHT22;1433;49.976;8.342;2023-06-24T10:14:53;27.70;1.00
2851;DHT22;1433;49.976;8.342;2023-06-24T10:17:19;27.80;1.00
2851;DHT22;1433;49.976;8.342;2023-06-24T10:19:45;28.00;1.00
2851;DHT22;1433;49.976;8.342;2023-06-24T10:22:11;28.00;1.00
2851;DHT22;1433;49.976;8.342;2023-06-24T10:24:39;27.90;1.00
2851;DHT22;1433;49.976;8.342;2023-06-24T10:27:13;27.70;1.00
2851;DHT22;1433;49.976;8.342;2023-06-24T10:29:37;27.80;1.00
2851;DHT22;1433;49.976;8.342;2023-06-24T10:32:08;27.50;1.00
2851;DHT22;1433;49.976;8.342;2023-06-24T10:34:41;28.40;1.00
2851;DHT22;1433;49.976;8.342;2023-06-24T10:37:10;29.90;45.20
2851;DHT22;1433;49.976;8.342;2023-06-24T10:44:53;32.70;99.90
2851;DHT22;1433;49.976;8.342;2023-06-24T10:47:19;33.40;99.90
2851;DHT22;1433;49.976;8.342;2023-06-24T10:49:46;33.50;99.90
2851;DHT22;1433;49.976;8.342;2023-06-24T10:52:13;34.30;99.90
2851;DHT22;1433;49.976;8.342;2023-06-24T10:54:40;35.20;99.90
2851;DHT22;1433;49.976;8.342;2023-06-24T10:57:07;35.90;99.90
2851;DHT22;1433;49.976;8.342;2023-06-24T10:59:34;35.80;80.30
2851;DHT22;1433;49.976;8.342;2023-06-24T11:02:01;35.60;50.70
2851;DHT22;1433;49.976;8.342;2023-06-24T11:04:27;33.80;28.90
2851;DHT22;1433;49.976;8.342;2023-06-24T11:07:13;33.60;56.60
2851;DHT22;1433;49.976;8.342;2023-06-24T11:10:04;34.40;99.90
2851;DHT22;1433;49.976;8.342;2023-06-24T11:12:16;34.50;19.40
2851;DHT22;1433;49.976;8.342;2023-06-24T11:14:43;35.20;36.20
2851;DHT22;1433;49.976;8.342;2023-06-24T11:17:09;35.10;14.80
2851;DHT22;1433;49.976;8.342;2023-06-24T11:19:35;34.80;15.10
2851;DHT22;1433;49.976;8.342;2023-06-24T11:22:04;34.60;8.70
2851;DHT22;1433;49.976;8.342;2023-06-24T11:24:30;34.50;9.50
2851;DHT22;1433;49.976;8.342;2023-06-24T11:26:57;35.00;9.30
2851;DHT22;1433;49.976;8.342;2023-06-24T11:29:23;35.80;20.50
2851;DHT22;1433;49.976;8.342;2023-06-24T11:31:50;36.20;1.00
2851;DHT22;1433;49.976;8.342;2023-06-24T11:34:16;36.30;20.50
2851;DHT22;1433;49.976;8.342;2023-06-24T11:36:43;36.70;9.70
2851;DHT22;1433;49.976;8.342;2023-06-24T11:39:24;36.80;57.10
2851;DHT22;1433;49.976;8.342;2023-06-24T11:41:48;35.20;1.00
2851;DHT22;1433;49.976;8.342;2023-06-24T11:44:17;35.10;1.00
2851;DHT22;1433;49.976;8.342;2023-06-24T11:46:43;35.40;11.10
2851;DHT22;1433;49.976;8.342;2023-06-24T11:49:10;35.50;1.00
2851;DHT22;1433;49.976;8.342;2023-06-24T11:51:36;34.50;1.00
2851;DHT22;1433;49.976;8.342;2023-06-24T11:54:05;34.90;42.30
2851;DHT22;1433;49.976;8.342;2023-06-24T11:56:39;36.00;1.00
2851;DHT22;1433;49.976;8.342;2023-06-24T11:59:14;36.40;48.10
2851;DHT22;1433;49.976;8.342;2023-06-24T12:01:35;35.90;34.90
2851;DHT22;1433;49.976;8.342;2023-06-24T12:04:12;35.70;12.00
2851;DHT22;1433;49.976;8.342;2023-06-24T12:06:40;35.30;1.00
2851;DHT22;1433;49.976;8.342;2023-06-24T12:09:08;35.80;1.00
2851;DHT22;1433;49.976;8.342;2023-06-24T12:11:35;34.80;84.00
2851;DHT22;1433;49.976;8.342;2023-06-24T12:14:01;35.60;1.00
2851;DHT22;1433;49.976;8.342;2023-06-24T12:16:29;36.40;54.00
2851;DHT22;1433;49.976;8.342;2023-06-24T12:18:57;35.90;99.90
2851;DHT22;1433;49.976;8.342;2023-06-24T12:21:23;36.00;99.90
2851;DHT22;1433;49.976;8.342;2023-06-24T12:23:49;34.60;99.90
2851;DHT22;1433;49.976;8.342;2023-06-24T12:26:16;34.50;1.00
2851;DHT22;1433;49.976;8.342;2023-06-24T12:28:42;35.30;94.10
2851;DHT22;1433;49.976;8.342;2023-06-24T12:31:08;35.40;67.70
2851;DHT22;1433;49.976;8.342;2023-06-24T12:33:34;35.50;18.10
2851;DHT22;1433;49.976;8.342;2023-06-24T12:36:00;36.60;1.00
2851;DHT22;1433;49.976;8.342;2023-06-24T12:38:27;37.70;5.00
2851;DHT22;1433;49.976;8.342;2023-06-24T12:40:53;38.30;38.70
2851;DHT22;1433;49.976;8.342;2023-06-24T12:43:19;38.00;1.00
2851;DHT22;1433;49.976;8.342;2023-06-24T12:45:46;37.30;1.00
2851;DHT22;1433;49.976;8.342;2023-06-24T12:48:13;36.80;1.00
2851;DHT22;1433;49.976;8.342;2023-06-24T12:50:39;37.00;1.00
2851;DHT22;1433;49.976;8.342;2023-06-24T12:53:06;36.90;1.00
2851;DHT22;1433;49.976;8.342;2023-06-24T12:55:32;36.70;1.00
2851;DHT22;1433;49.976;8.342;2023-06-24T12:57:58;37.30;1.00
2851;DHT22;1433;49.976;8.342;2023-06-24T13:00:25;37.30;1.00
2851;DHT22;1433;49.976;8.342;2023-06-24T13:02:51;36.20;1.00
2851;DHT22;1433;49.976;8.342;2023-06-24T13:05:18;35.60;1.00
2851;DHT22;1433;49.976;8.342;2023-06-24T13:07:44;35.20;1.00
2851;DHT22;1433;49.976;8.342;2023-06-24T13:10:10;34.90;1.00
2851;DHT22;1433;49.976;8.342;2023-06-24T13:12:37;35.20;1.00
2851;DHT22;1433;49.976;8.342;2023-06-24T13:15:05;34.30;1.00
2851;DHT22;1433;49.976;8.342;2023-06-24T13:17:32;34.10;1.00
2851;DHT22;1433;49.976;8.342;2023-06-24T13:19:58;35.50;1.00
2851;DHT22;1433;49.976;8.342;2023-06-24T13:22:25;36.20;1.00
2851;DHT22;1433;49.976;8.342;2023-06-24T13:24:51;37.00;1.00
2851;DHT22;1433;49.976;8.342;2023-06-24T13:27:17;37.80;1.00
2851;DHT22;1433;49.976;8.342;2023-06-24T13:29:44;38.30;1.00
2851;DHT22;1433;49.976;8.342;2023-06-24T13:32:10;38.90;1.00
2851;DHT22;1433;49.976;8.342;2023-06-24T13:34:36;40.00;1.00
2851;DHT22;1433;49.976;8.342;2023-06-24T13:37:03;40.00;1.00
2851;DHT22;1433;49.976;8.342;2023-06-24T13:39:29;39.10;1.00
2851;DHT22;1433;49.976;8.342;2023-06-24T13:41:56;38.30;1.00
2851;DHT22;1433;49.976;8.342;2023-06-24T13:44:23;37.70;1.00
2851;DHT22;1433;49.976;8.342;2023-06-24T13:46:50;37.50;1.00
2851;DHT22;1433;49.976;8.342;2023-06-24T13:49:18;36.90;1.00
2851;DHT22;1433;49.976;8.342;2023-06-24T13:51:45;36.70;1.00
2851;DHT22;1433;49.976;8.342;2023-06-24T13:54:11;36.60;1.00
2851;DHT22;1433;49.976;8.342;2023-06-24T13:56:37;36.70;1.00
2851;DHT22;1433;49.976;8.342;2023-06-24T13:59:04;35.90;1.00
2851;DHT22;1433;49.976;8.342;2023-06-24T14:01:30;35.60;1.00
2851;DHT22;1433;49.976;8.342;2023-06-24T14:03:57;35.30;1.00
2851;DHT22;1433;49.976;8.342;2023-06-24T14:06:23;35.50;1.00
2851;DHT22;1433;49.976;8.342;2023-06-24T14:08:50;35.70;1.00
2851;DHT22;1433;49.976;8.342;2023-06-24T14:11:17;35.20;1.00
2851;DHT22;1433;49.976;8.342;2023-06-24T14:13:44;35.10;1.00
2851;DHT22;1433;49.976;8.342;2023-06-24T14:16:10;35.90;1.00
2851;DHT22;1433;49.976;8.342;2023-06-24T14:18:37;37.30;1.00
2851;DHT22;1433;49.976;8.342;2023-06-24T14:21:06;37.80;1.00
2851;DHT22;1433;49.976;8.342;2023-06-24T14:23:33;37.40;1.00
2851;DHT22;1433;49.976;8.342;2023-06-24T14:26:00;36.90;1.00
2851;DHT22;1433;49.976;8.342;2023-06-24T14:28:27;37.70;1.00
2851;DHT22;1433;49.976;8.342;2023-06-24T14:30:53;38.00;1.00
2851;DHT22;1433;49.976;8.342;2023-06-24T14:33:19;37.30;1.00
2851;DHT22;1433;49.976;8.342;2023-06-24T14:35:46;36.90;1.00
2851;DHT22;1433;49.976;8.342;2023-06-24T14:38:12;37.60;1.00
2851;DHT22;1433;49.976;8.342;2023-06-24T14:40:38;37.50;1.00
2851;DHT22;1433;49.976;8.342;2023-06-24T14:43:04;37.50;1.00
2851;DHT22;1433;49.976;8.342;2023-06-24T14:45:31;38.50;1.00
2851;DHT22;1433;49.976;8.342;2023-06-24T14:47:57;39.80;1.00
2851;DHT22;1433;49.976;8.342;2023-06-24T14:50:23;40.50;1.00
2851;DHT22;1433;49.976;8.342;2023-06-24T14:52:49;40.70;1.00
2851;DHT22;1433;49.976;8.342;2023-06-24T14:55:16;41.30;12.60
2851;DHT22;1433;49.976;8.342;2023-06-24T14:57:42;41.70;1.00
2851;DHT22;1433;49.976;8.342;2023-06-24T15:00:09;42.20;1.00
2851;DHT22;1433;49.976;8.342;2023-06-24T15:02:35;42.10;1.00
2851;DHT22;1433;49.976;8.342;2023-06-24T15:05:02;40.80;1.00
2851;DHT22;1433;49.976;8.342;2023-06-24T15:07:29;39.80;1.00
2851;DHT22;1433;49.976;8.342;2023-06-24T15:09:55;38.90;1.00
2851;DHT22;1433;49.976;8.342;2023-06-24T15:12:21;37.80;1.00
2851;DHT22;1433;49.976;8.342;2023-06-24T15:14:47;38.00;1.00
2851;DHT22;1433;49.976;8.342;2023-06-24T15:17:14;38.90;1.00
2851;DHT22;1433;49.976;8.342;2023-06-24T15:19:41;40.20;1.00
2851;DHT22;1433;49.976;8.342;2023-06-24T15:22:07;39.90;1.00
2851;DHT22;1433;49.976;8.342;2023-06-24T15:24:33;39.60;1.00
2851;DHT22;1433;49.976;8.342;2023-06-24T15:27:00;40.00;1.00
2851;DHT22;1433;49.976;8.342;2023-06-24T15:29:26;40.30;1.00
2851;DHT22;1433;49.976;8.342;2023-06-24T15:31:52;40.80;1.00
2851;DHT22;1433;49.976;8.342;2023-06-24T15:34:19;40.90;1.00
2851;DHT22;1433;49.976;8.342;2023-06-24T15:36:45;41.10;1.00
2851;DHT22;1433;49.976;8.342;2023-06-24T15:39:11;41.20;1.00
2851;DHT22;1433;49.976;8.342;2023-06-24T15:41:37;41.20;1.00
2851;DHT22;1433;49.976;8.342;2023-06-24T15:44:05;41.20;1.00
2851;DHT22;1433;49.976;8.342;2023-06-24T15:46:35;40.80;1.00
2851;DHT22;1433;49.976;8.342;2023-06-24T15:49:04;41.20;1.00
2851;DHT22;1433;49.976;8.342;2023-06-24T15:51:31;40.60;1.00
2851;DHT22;1433;49.976;8.342;2023-06-24T15:53:58;40.00;1.00
2851;DHT22;1433;49.976;8.342;2023-06-24T15:56:25;39.50;1.00
2851;DHT22;1433;49.976;8.342;2023-06-24T15:58:52;38.80;1.00
2851;DHT22;1433;49.976;8.342;2023-06-24T16:01:18;38.40;1.00
2851;DHT22;1433;49.976;8.342;2023-06-24T16:03:44;38.10;1.00
2851;DHT22;1433;49.976;8.342;2023-06-24T16:06:11;39.00;1.00
2851;DHT22;1433;49.976;8.342;2023-06-24T16:08:37;39.40;1.00
2851;DHT22;1433;49.976;8.342;2023-06-24T16:11:03;39.30;1.00
2851;DHT22;1433;49.976;8.342;2023-06-24T16:13:31;38.80;1.00
2851;DHT22;1433;49.976;8.342;2023-06-24T16:15:58;38.30;1.00
2851;DHT22;1433;49.976;8.342;2023-06-24T16:18:24;37.50;1.00